sensor_id;sensor_type;location;lat;lon;timestamp;P1;durP1;ratioP1;P2;durP2;ratioP2
32250;SDS011;41295;48.518;9.206;2023-01-05T00:01:38;2.58;;;0.60;;
32250;SDS011;41295;48.518;9.206;2023-01-05T00:03:42;0.40;;;0.40;;
32250;SDS011;41295;48.518;9.206;2023-01-05T00:05:44;0.40;;;0.40;;
32250;SDS011;41295;48.518;9.206;2023-01-05T00:07:47;0.60;;;0.40;;
32250;SDS011;41295;48.518;9.206;2023-01-05T00:09:49;0.45;;;0.30;;
32250;SDS011;41295;48.518;9.206;2023-01-05T00:11:52;0.40;;;0.40;;
32250;SDS011;41295;48.518;9.206;2023-01-05T00:14:12;0.45;;;0.40;;
32250;SDS011;41295;48.518;9.206;2023-01-05T00:18:57;0.75;;;0.38;;
32250;SDS011;41295;48.518;9.206;2023-01-05T00:21:17;0.60;;;0.40;;
32250;SDS011;41295;48.518;9.206;2023-01-05T00:23:38;0.63;;;0.50;;
32250;SDS011;41295;48.518;9.206;2023-01-05T00:25:40;0.40;;;0.40;;
32250;SDS011;41295;48.518;9.206;2023-01-05T00:27:43;0.40;;;0.40;;
32250;SDS011;41295;48.518;9.206;2023-01-05T00:29:48;0.38;;;0.38;;
32250;SDS011;41295;48.518;9.206;2023-01-05T00:31:51;0.75;;;0.50;;
32250;SDS011;41295;48.518;9.206;2023-01-05T00:33:55;2.38;;;0.40;;
32250;SDS011;41295;48.518;9.206;2023-01-05T00:35:57;2.63;;;0.40;;
32250;SDS011;41295;48.518;9.206;2023-01-05T00:38:00;0.38;;;0.38;;
32250;SDS011;41295;48.518;9.206;2023-01-05T00:40:03;0.40;;;0.40;;
32250;SDS011;41295;48.518;9.206;2023-01-05T00:42:06;1.02;;;0.40;;
32250;SDS011;41295;48.518;9.206;2023-01-05T00:44:08;0.50;;;0.50;;
32250;SDS011;41295;48.518;9.206;2023-01-05T00:46:11;0.65;;;0.47;;
32250;SDS011;41295;48.518;9.206;2023-01-05T00:48:13;0.50;;;0.50;;
32250;SDS011;41295;48.518;9.206;2023-01-05T00:50:18;0.40;;;0.40;;
32250;SDS011;41295;48.518;9.206;2023-01-05T00:52:21;0.60;;;0.60;;
32250;SDS011;41295;48.518;9.206;2023-01-05T00:54:23;0.50;;;0.50;;
32250;SDS011;41295;48.518;9.206;2023-01-05T00:56:26;0.40;;;0.40;;
32250;SDS011;41295;48.518;9.206;2023-01-05T00:58:29;0.40;;;0.40;;
32250;SDS011;41295;48.518;9.206;2023-01-05T01:00:31;0.82;;;0.52;;
32250;SDS011;41295;48.518;9.206;2023-01-05T01:02:34;3.20;;;0.50;;
32250;SDS011;41295;48.518;9.206;2023-01-05T01:04:37;1.30;;;0.50;;
32250;SDS011;41295;48.518;9.206;2023-01-05T01:06:41;2.35;;;0.80;;
32250;SDS011;41295;48.518;9.206;2023-01-05T01:08:44;1.05;;;0.52;;
32250;SDS011;41295;48.518;9.206;2023-01-05T01:10:46;0.60;;;0.60;;
32250;SDS011;41295;48.518;9.206;2023-01-05T01:12:49;0.68;;;0.40;;
32250;SDS011;41295;48.518;9.206;2023-01-05T01:14:54;0.43;;;0.40;;
32250;SDS011;41295;48.518;9.206;2023-01-05T01:16:56;0.40;;;0.40;;
32250;SDS011;41295;48.518;9.206;2023-01-05T01:18:59;0.40;;;0.40;;
32250;SDS011;41295;48.518;9.206;2023-01-05T01:21:05;0.50;;;0.50;;
32250;SDS011;41295;48.518;9.206;2023-01-05T01:23:11;0.73;;;0.73;;
32250;SDS011;41295;48.518;9.206;2023-01-05T01:25:13;0.43;;;0.40;;
32250;SDS011;41295;48.518;9.206;2023-01-05T01:27:16;0.77;;;0.47;;
32250;SDS011;41295;48.518;9.206;2023-01-05T01:29:19;1.17;;;0.50;;
32250;SDS011;41295;48.518;9.206;2023-01-05T01:31:22;0.43;;;0.40;;
32250;SDS011;41295;48.518;9.206;2023-01-05T01:33:25;0.43;;;0.40;;
32250;SDS011;41295;48.518;9.206;2023-01-05T01:35:28;0.40;;;0.40;;
32250;SDS011;41295;48.518;9.206;2023-01-05T01:37:31;1.48;;;0.43;;
32250;SDS011;41295;48.518;9.206;2023-01-05T01:39:35;1.17;;;1.08;;
32250;SDS011;41295;48.518;9.206;2023-01-05T01:41:37;1.58;;;0.52;;
32250;SDS011;41295;48.518;9.206;2023-01-05T01:43:45;1.38;;;0.50;;
32250;SDS011;41295;48.518;9.206;2023-01-05T01:45:49;1.02;;;0.43;;
32250;SDS011;41295;48.518;9.206;2023-01-05T01:47:51;0.45;;;0.45;;
32250;SDS011;41295;48.518;9.206;2023-01-05T01:49:58;0.52;;;0.50;;
32250;SDS011;41295;48.518;9.206;2023-01-05T01:52:03;1.20;;;0.47;;
32250;SDS011;41295;48.518;9.206;2023-01-05T01:54:08;0.55;;;0.30;;
32250;SDS011;41295;48.518;9.206;2023-01-05T01:56:14;0.57;;;0.57;;
32250;SDS011;41295;48.518;9.206;2023-01-05T01:58:20;1.10;;;0.47;;
32250;SDS011;41295;48.518;9.206;2023-01-05T02:00:26;0.43;;;0.30;;
32250;SDS011;41295;48.518;9.206;2023-01-05T02:02:29;0.40;;;0.40;;
32250;SDS011;41295;48.518;9.206;2023-01-05T02:04:32;0.40;;;0.40;;
32250;SDS011;41295;48.518;9.206;2023-01-05T02:06:38;0.45;;;0.30;;
32250;SDS011;41295;48.518;9.206;2023-01-05T02:08:40;4.13;;;0.80;;
32250;SDS011;41295;48.518;9.206;2023-01-05T02:10:53;0.50;;;0.40;;
32250;SDS011;41295;48.518;9.206;2023-01-05T02:13:06;0.63;;;0.50;;
32250;SDS011;41295;48.518;9.206;2023-01-05T02:15:21;0.57;;;0.50;;
32250;SDS011;41295;48.518;9.206;2023-01-05T02:17:32;0.40;;;0.40;;
32250;SDS011;41295;48.518;9.206;2023-01-05T02:20:07;0.40;;;0.40;;
32250;SDS011;41295;48.518;9.206;2023-01-05T02:22:35;1.67;;;0.40;;
32250;SDS011;41295;48.518;9.206;2023-01-05T02:25:16;0.90;;;0.52;;
32250;SDS011;41295;48.518;9.206;2023-01-05T02:27:44;0.40;;;0.40;;
32250;SDS011;41295;48.518;9.206;2023-01-05T02:29:58;0.50;;;0.40;;
32250;SDS011;41295;48.518;9.206;2023-01-05T02:32:18;1.40;;;0.40;;
32250;SDS011;41295;48.518;9.206;2023-01-05T02:34:26;1.23;;;0.60;;
32250;SDS011;41295;48.518;9.206;2023-01-05T02:36:38;0.57;;;0.50;;
32250;SDS011;41295;48.518;9.206;2023-01-05T02:38:50;1.00;;;0.40;;
32250;SDS011;41295;48.518;9.206;2023-01-05T02:40:59;1.30;;;0.50;;
32250;SDS011;41295;48.518;9.206;2023-01-05T02:43:09;0.47;;;0.40;;
32250;SDS011;41295;48.518;9.206;2023-01-05T02:45:15;1.05;;;0.32;;
32250;SDS011;41295;48.518;9.206;2023-01-05T02:47:36;0.30;;;0.30;;
32250;SDS011;41295;48.518;9.206;2023-01-05T02:49:40;0.40;;;0.40;;
32250;SDS011;41295;48.518;9.206;2023-01-05T02:51:45;0.28;;;0.28;;
32250;SDS011;41295;48.518;9.206;2023-01-05T02:53:52;0.28;;;0.28;;
32250;SDS011;41295;48.518;9.206;2023-01-05T02:56:02;0.30;;;0.30;;
32250;SDS011;41295;48.518;9.206;2023-01-05T02:58:12;0.40;;;0.30;;
32250;SDS011;41295;48.518;9.206;2023-01-05T03:00:19;0.30;;;0.30;;
32250;SDS011;41295;48.518;9.206;2023-01-05T03:02:26;0.32;;;0.30;;
32250;SDS011;41295;48.518;9.206;2023-01-05T03:04:34;0.40;;;0.40;;
32250;SDS011;41295;48.518;9.206;2023-01-05T03:06:42;0.30;;;0.30;;
32250;SDS011;41295;48.518;9.206;2023-01-05T03:08:50;0.80;;;0.40;;
32250;SDS011;41295;48.518;9.206;2023-01-05T03:10:57;0.88;;;0.40;;
32250;SDS011;41295;48.518;9.206;2023-01-05T03:13:28;0.40;;;0.38;;
32250;SDS011;41295;48.518;9.206;2023-01-05T03:15:42;0.40;;;0.40;;
32250;SDS011;41295;48.518;9.206;2023-01-05T03:17:48;0.82;;;0.40;;
32250;SDS011;41295;48.518;9.206;2023-01-05T03:19:54;0.30;;;0.30;;
32250;SDS011;41295;48.518;9.206;2023-01-05T03:22:02;0.35;;;0.35;;
32250;SDS011;41295;48.518;9.206;2023-01-05T03:24:26;0.30;;;0.30;;
32250;SDS011;41295;48.518;9.206;2023-01-05T03:26:50;0.20;;;0.20;;
32250;SDS011;41295;48.518;9.206;2023-01-05T03:29:10;1.45;;;0.60;;
32250;SDS011;41295;48.518;9.206;2023-01-05T03:31:32;0.73;;;0.20;;
32250;SDS011;41295;48.518;9.206;2023-01-05T03:33:56;0.30;;;0.30;;
32250;SDS011;41295;48.518;9.206;2023-01-05T03:36:23;0.73;;;0.40;;
32250;SDS011;41295;48.518;9.206;2023-01-05T03:38:31;0.40;;;0.40;;
32250;SDS011;41295;48.518;9.206;2023-01-05T03:40:39;0.30;;;0.30;;
32250;SDS011;41295;48.518;9.206;2023-01-05T03:42:44;0.47;;;0.47;;
32250;SDS011;41295;48.518;9.206;2023-01-05T03:44:47;0.40;;;0.30;;
32250;SDS011;41295;48.518;9.206;2023-01-05T03:46:51;0.30;;;0.30;;
32250;SDS011;41295;48.518;9.206;2023-01-05T03:48:53;0.30;;;0.30;;
32250;SDS011;41295;48.518;9.206;2023-01-05T03:50:56;3.42;;;0.30;;
32250;SDS011;41295;48.518;9.206;2023-01-05T03:53:00;0.40;;;0.40;;
32250;SDS011;41295;48.518;9.206;2023-01-05T03:55:03;0.28;;;0.28;;
32250;SDS011;41295;48.518;9.206;2023-01-05T03:57:06;1.33;;;0.40;;
32250;SDS011;41295;48.518;9.206;2023-01-05T03:59:09;0.30;;;0.30;;
32250;SDS011;41295;48.518;9.206;2023-01-05T04:01:11;0.63;;;0.20;;
32250;SDS011;41295;48.518;9.206;2023-01-05T04:03:14;0.20;;;0.20;;
32250;SDS011;41295;48.518;9.206;2023-01-05T04:05:17;0.75;;;0.30;;
32250;SDS011;41295;48.518;9.206;2023-01-05T04:07:19;0.73;;;0.40;;
32250;SDS011;41295;48.518;9.206;2023-01-05T04:09:23;0.65;;;0.30;;
32250;SDS011;41295;48.518;9.206;2023-01-05T04:11:26;0.20;;;0.20;;
32250;SDS011;41295;48.518;9.206;2023-01-05T04:13:28;0.43;;;0.35;;
32250;SDS011;41295;48.518;9.206;2023-01-05T04:15:31;0.40;;;0.30;;
32250;SDS011;41295;48.518;9.206;2023-01-05T04:17:33;0.88;;;0.30;;
32250;SDS011;41295;48.518;9.206;2023-01-05T04:19:36;0.40;;;0.40;;
32250;SDS011;41295;48.518;9.206;2023-01-05T04:21:39;1.48;;;0.50;;
32250;SDS011;41295;48.518;9.206;2023-01-05T04:23:41;1.42;;;0.47;;
32250;SDS011;41295;48.518;9.206;2023-01-05T04:25:46;0.20;;;0.20;;
32250;SDS011;41295;48.518;9.206;2023-01-05T04:27:49;0.90;;;0.63;;
32250;SDS011;41295;48.518;9.206;2023-01-05T04:29:51;3.45;;;1.90;;
32250;SDS011;41295;48.518;9.206;2023-01-05T04:31:54;0.30;;;0.30;;
32250;SDS011;41295;48.518;9.206;2023-01-05T04:33:56;0.30;;;0.30;;
32250;SDS011;41295;48.518;9.206;2023-01-05T04:35:59;0.45;;;0.45;;
32250;SDS011;41295;48.518;9.206;2023-01-05T04:38:02;0.40;;;0.30;;
32250;SDS011;41295;48.518;9.206;2023-01-05T04:40:05;1.55;;;1.00;;
32250;SDS011;41295;48.518;9.206;2023-01-05T04:42:09;0.82;;;0.50;;
32250;SDS011;41295;48.518;9.206;2023-01-05T04:44:12;1.08;;;0.40;;
32250;SDS011;41295;48.518;9.206;2023-01-05T04:46:14;0.40;;;0.40;;
32250;SDS011;41295;48.518;9.206;2023-01-05T04:48:17;1.77;;;0.40;;
32250;SDS011;41295;48.518;9.206;2023-01-05T04:50:20;0.35;;;0.35;;
32250;SDS011;41295;48.518;9.206;2023-01-05T04:52:22;0.52;;;0.30;;
32250;SDS011;41295;48.518;9.206;2023-01-05T04:54:25;0.30;;;0.30;;
32250;SDS011;41295;48.518;9.206;2023-01-05T04:56:27;0.20;;;0.20;;
32250;SDS011;41295;48.518;9.206;2023-01-05T04:58:31;1.60;;;0.25;;
32250;SDS011;41295;48.518;9.206;2023-01-05T05:00:34;0.30;;;0.30;;
32250;SDS011;41295;48.518;9.206;2023-01-05T05:02:37;0.30;;;0.30;;
32250;SDS011;41295;48.518;9.206;2023-01-05T05:04:39;0.30;;;0.30;;
32250;SDS011;41295;48.518;9.206;2023-01-05T05:06:42;0.47;;;0.32;;
32250;SDS011;41295;48.518;9.206;2023-01-05T05:08:45;0.38;;;0.38;;
32250;SDS011;41295;48.518;9.206;2023-01-05T05:10:48;0.22;;;0.20;;
32250;SDS011;41295;48.518;9.206;2023-01-05T05:12:50;0.30;;;0.30;;
32250;SDS011;41295;48.518;9.206;2023-01-05T05:14:55;0.40;;;0.40;;
32250;SDS011;41295;48.518;9.206;2023-01-05T05:16:57;0.30;;;0.30;;
32250;SDS011;41295;48.518;9.206;2023-01-05T05:19:00;0.30;;;0.30;;
32250;SDS011;41295;48.518;9.206;2023-01-05T05:21:02;0.40;;;0.40;;
32250;SDS011;41295;48.518;9.206;2023-01-05T05:23:05;0.28;;;0.28;;
32250;SDS011;41295;48.518;9.206;2023-01-05T05:25:08;0.20;;;0.20;;
32250;SDS011;41295;48.518;9.206;2023-01-05T05:27:11;0.65;;;0.30;;
32250;SDS011;41295;48.518;9.206;2023-01-05T05:29:13;0.85;;;0.35;;
32250;SDS011;41295;48.518;9.206;2023-01-05T05:31:17;0.30;;;0.30;;
32250;SDS011;41295;48.518;9.206;2023-01-05T05:33:20;0.20;;;0.20;;
32250;SDS011;41295;48.518;9.206;2023-01-05T05:35:22;0.20;;;0.20;;
32250;SDS011;41295;48.518;9.206;2023-01-05T05:37:25;0.43;;;0.30;;
32250;SDS011;41295;48.518;9.206;2023-01-05T05:39:28;0.30;;;0.30;;
32250;SDS011;41295;48.518;9.206;2023-01-05T05:41:30;0.52;;;0.30;;
32250;SDS011;41295;48.518;9.206;2023-01-05T05:43:33;0.35;;;0.25;;
32250;SDS011;41295;48.518;9.206;2023-01-05T05:45:35;0.30;;;0.30;;
32250;SDS011;41295;48.518;9.206;2023-01-05T05:47:39;0.22;;;0.22;;
32250;SDS011;41295;48.518;9.206;2023-01-05T05:49:42;0.25;;;0.25;;
32250;SDS011;41295;48.518;9.206;2023-01-05T05:51:44;0.45;;;0.20;;
32250;SDS011;41295;48.518;9.206;2023-01-05T05:53:47;0.60;;;0.40;;
32250;SDS011;41295;48.518;9.206;2023-01-05T05:55:50;0.90;;;0.40;;
32250;SDS011;41295;48.518;9.206;2023-01-05T05:57:52;0.22;;;0.22;;
32250;SDS011;41295;48.518;9.206;2023-01-05T05:59:55;0.30;;;0.30;;
32250;SDS011;41295;48.518;9.206;2023-01-05T06:01:58;0.35;;;0.35;;
32250;SDS011;41295;48.518;9.206;2023-01-05T06:04:02;0.30;;;0.30;;
32250;SDS011;41295;48.518;9.206;2023-01-05T06:06:05;0.20;;;0.20;;
32250;SDS011;41295;48.518;9.206;2023-01-05T06:08:08;0.47;;;0.45;;
32250;SDS011;41295;48.518;9.206;2023-01-05T06:10:11;0.80;;;0.40;;
32250;SDS011;41295;48.518;9.206;2023-01-05T06:12:13;2.40;;;0.40;;
32250;SDS011;41295;48.518;9.206;2023-01-05T06:14:16;0.70;;;0.40;;
32250;SDS011;41295;48.518;9.206;2023-01-05T06:16:19;0.90;;;0.52;;
32250;SDS011;41295;48.518;9.206;2023-01-05T06:18:21;0.68;;;0.50;;
32250;SDS011;41295;48.518;9.206;2023-01-05T06:20:26;0.50;;;0.50;;
32250;SDS011;41295;48.518;9.206;2023-01-05T06:22:28;0.30;;;0.30;;
32250;SDS011;41295;48.518;9.206;2023-01-05T06:24:31;0.90;;;0.40;;
32250;SDS011;41295;48.518;9.206;2023-01-05T06:26:33;0.60;;;0.38;;
32250;SDS011;41295;48.518;9.206;2023-01-05T06:28:36;0.47;;;0.43;;
32250;SDS011;41295;48.518;9.206;2023-01-05T06:30:38;0.40;;;0.40;;
32250;SDS011;41295;48.518;9.206;2023-01-05T06:32:41;0.50;;;0.45;;
32250;SDS011;41295;48.518;9.206;2023-01-05T06:34:44;0.25;;;0.25;;
32250;SDS011;41295;48.518;9.206;2023-01-05T06:36:48;0.60;;;0.28;;
32250;SDS011;41295;48.518;9.206;2023-01-05T06:38:50;0.55;;;0.40;;
32250;SDS011;41295;48.518;9.206;2023-01-05T06:40:53;0.20;;;0.20;;
32250;SDS011;41295;48.518;9.206;2023-01-05T06:42:56;0.57;;;0.40;;
32250;SDS011;41295;48.518;9.206;2023-01-05T06:44:58;0.82;;;0.25;;
32250;SDS011;41295;48.518;9.206;2023-01-05T06:47:01;0.30;;;0.30;;
32250;SDS011;41295;48.518;9.206;2023-01-05T06:49:03;0.43;;;0.43;;
32250;SDS011;41295;48.518;9.206;2023-01-05T06:51:06;0.38;;;0.38;;
32250;SDS011;41295;48.518;9.206;2023-01-05T06:53:10;1.92;;;0.50;;
32250;SDS011;41295;48.518;9.206;2023-01-05T06:55:12;0.45;;;0.35;;
32250;SDS011;41295;48.518;9.206;2023-01-05T06:57:15;0.30;;;0.30;;
32250;SDS011;41295;48.518;9.206;2023-01-05T06:59:18;0.47;;;0.30;;
32250;SDS011;41295;48.518;9.206;2023-01-05T07:01:20;0.57;;;0.50;;
32250;SDS011;41295;48.518;9.206;2023-01-05T07:03:23;0.50;;;0.50;;
32250;SDS011;41295;48.518;9.206;2023-01-05T07:05:26;0.40;;;0.40;;
32250;SDS011;41295;48.518;9.206;2023-01-05T07:07:28;0.40;;;0.40;;
32250;SDS011;41295;48.518;9.206;2023-01-05T07:09:32;1.55;;;0.60;;
32250;SDS011;41295;48.518;9.206;2023-01-05T07:11:35;0.75;;;0.47;;
32250;SDS011;41295;48.518;9.206;2023-01-05T07:13:38;0.50;;;0.50;;
32250;SDS011;41295;48.518;9.206;2023-01-05T07:15:40;0.60;;;0.40;;
32250;SDS011;41295;48.518;9.206;2023-01-05T07:17:43;1.40;;;0.55;;
32250;SDS011;41295;48.518;9.206;2023-01-05T07:19:45;1.67;;;0.50;;
32250;SDS011;41295;48.518;9.206;2023-01-05T07:21:48;1.38;;;0.68;;
32250;SDS011;41295;48.518;9.206;2023-01-05T07:23:57;0.47;;;0.47;;
32250;SDS011;41295;48.518;9.206;2023-01-05T07:26:00;0.30;;;0.30;;
32250;SDS011;41295;48.518;9.206;2023-01-05T07:28:03;0.30;;;0.30;;
32250;SDS011;41295;48.518;9.206;2023-01-05T07:30:06;1.20;;;0.45;;
32250;SDS011;41295;48.518;9.206;2023-01-05T07:32:10;2.05;;;0.40;;
32250;SDS011;41295;48.518;9.206;2023-01-05T07:34:12;0.30;;;0.30;;
32250;SDS011;41295;48.518;9.206;2023-01-05T07:36:15;2.42;;;0.60;;
32250;SDS011;41295;48.518;9.206;2023-01-05T07:38:17;0.35;;;0.32;;
32250;SDS011;41295;48.518;9.206;2023-01-05T07:40:20;0.80;;;0.70;;
32250;SDS011;41295;48.518;9.206;2023-01-05T07:42:24;1.73;;;0.47;;
32250;SDS011;41295;48.518;9.206;2023-01-05T07:44:26;0.60;;;0.40;;
32250;SDS011;41295;48.518;9.206;2023-01-05T07:46:29;2.28;;;0.55;;
32250;SDS011;41295;48.518;9.206;2023-01-05T07:48:31;1.02;;;0.50;;
32250;SDS011;41295;48.518;9.206;2023-01-05T07:50:34;1.30;;;0.50;;
32250;SDS011;41295;48.518;9.206;2023-01-05T07:52:37;1.17;;;0.57;;
32250;SDS011;41295;48.518;9.206;2023-01-05T07:54:40;0.98;;;0.50;;
32250;SDS011;41295;48.518;9.206;2023-01-05T07:56:42;1.13;;;0.60;;
32250;SDS011;41295;48.518;9.206;2023-01-05T07:58:46;0.90;;;0.60;;
32250;SDS011;41295;48.518;9.206;2023-01-05T08:00:49;1.10;;;0.60;;
32250;SDS011;41295;48.518;9.206;2023-01-05T08:02:51;1.48;;;0.65;;
32250;SDS011;41295;48.518;9.206;2023-01-05T08:04:54;0.63;;;0.50;;
32250;SDS011;41295;48.518;9.206;2023-01-05T08:06:57;2.25;;;0.65;;
32250;SDS011;41295;48.518;9.206;2023-01-05T08:08:59;1.35;;;0.70;;
32250;SDS011;41295;48.518;9.206;2023-01-05T08:11:22;0.60;;;0.60;;
32250;SDS011;41295;48.518;9.206;2023-01-05T08:13:23;0.60;;;0.50;;
32250;SDS011;41295;48.518;9.206;2023-01-05T08:15:45;0.77;;;0.60;;
32250;SDS011;41295;48.518;9.206;2023-01-05T08:17:51;2.67;;;0.40;;
32250;SDS011;41295;48.518;9.206;2023-01-05T08:19:54;0.70;;;0.40;;
32250;SDS011;41295;48.518;9.206;2023-01-05T08:21:57;0.52;;;0.40;;
32250;SDS011;41295;48.518;9.206;2023-01-05T08:23:59;0.90;;;0.47;;
32250;SDS011;41295;48.518;9.206;2023-01-05T08:26:02;1.60;;;0.55;;
32250;SDS011;41295;48.518;9.206;2023-01-05T08:28:06;1.35;;;0.70;;
32250;SDS011;41295;48.518;9.206;2023-01-05T08:30:09;0.47;;;0.47;;
32250;SDS011;41295;48.518;9.206;2023-01-05T08:32:14;0.60;;;0.50;;
32250;SDS011;41295;48.518;9.206;2023-01-05T08:34:16;4.75;;;0.60;;
32250;SDS011;41295;48.518;9.206;2023-01-05T08:36:19;1.13;;;0.50;;
32250;SDS011;41295;48.518;9.206;2023-01-05T08:38:22;1.13;;;0.60;;
32250;SDS011;41295;48.518;9.206;2023-01-05T08:40:25;1.55;;;0.50;;
32250;SDS011;41295;48.518;9.206;2023-01-05T08:42:27;1.02;;;0.50;;
32250;SDS011;41295;48.518;9.206;2023-01-05T08:44:30;0.43;;;0.40;;
32250;SDS011;41295;48.518;9.206;2023-01-05T08:46:33;1.52;;;0.70;;
32250;SDS011;41295;48.518;9.206;2023-01-05T08:48:38;0.63;;;0.50;;
32250;SDS011;41295;48.518;9.206;2023-01-05T08:50:40;1.00;;;0.60;;
32250;SDS011;41295;48.518;9.206;2023-01-05T08:52:43;0.40;;;0.40;;
32250;SDS011;41295;48.518;9.206;2023-01-05T08:54:46;1.08;;;0.77;;
32250;SDS011;41295;48.518;9.206;2023-01-05T08:56:48;3.22;;;0.68;;
32250;SDS011;41295;48.518;9.206;2023-01-05T08:58:51;1.20;;;0.70;;
32250;SDS011;41295;48.518;9.206;2023-01-05T09:00:57;1.35;;;0.70;;
32250;SDS011;41295;48.518;9.206;2023-01-05T09:03:00;0.75;;;0.68;;
32250;SDS011;41295;48.518;9.206;2023-01-05T09:05:05;2.25;;;0.75;;
32250;SDS011;41295;48.518;9.206;2023-01-05T09:07:08;0.80;;;0.77;;
32250;SDS011;41295;48.518;9.206;2023-01-05T09:09:11;1.83;;;0.85;;
32250;SDS011;41295;48.518;9.206;2023-01-05T09:11:14;2.88;;;1.15;;
32250;SDS011;41295;48.518;9.206;2023-01-05T09:13:18;1.80;;;1.10;;
32250;SDS011;41295;48.518;9.206;2023-01-05T09:15:21;1.13;;;0.98;;
32250;SDS011;41295;48.518;9.206;2023-01-05T09:17:23;1.80;;;1.23;;
32250;SDS011;41295;48.518;9.206;2023-01-05T09:19:26;2.10;;;0.90;;
32250;SDS011;41295;48.518;9.206;2023-01-05T09:21:30;1.33;;;1.10;;
32250;SDS011;41295;48.518;9.206;2023-01-05T09:23:33;3.90;;;1.58;;
32250;SDS011;41295;48.518;9.206;2023-01-05T09:25:37;1.13;;;0.88;;
32250;SDS011;41295;48.518;9.206;2023-01-05T09:27:39;2.22;;;1.05;;
32250;SDS011;41295;48.518;9.206;2023-01-05T09:29:43;1.60;;;1.10;;
32250;SDS011;41295;48.518;9.206;2023-01-05T09:31:46;2.60;;;1.05;;
32250;SDS011;41295;48.518;9.206;2023-01-05T09:33:48;2.70;;;1.95;;
32250;SDS011;41295;48.518;9.206;2023-01-05T09:35:54;1.38;;;0.90;;
32250;SDS011;41295;48.518;9.206;2023-01-05T09:37:58;3.75;;;1.25;;
32250;SDS011;41295;48.518;9.206;2023-01-05T09:40:01;3.90;;;1.10;;
32250;SDS011;41295;48.518;9.206;2023-01-05T09:42:04;2.50;;;1.05;;
32250;SDS011;41295;48.518;9.206;2023-01-05T09:44:14;2.42;;;1.10;;
32250;SDS011;41295;48.518;9.206;2023-01-05T09:46:28;3.40;;;1.30;;
32250;SDS011;41295;48.518;9.206;2023-01-05T09:48:35;5.45;;;1.10;;
32250;SDS011;41295;48.518;9.206;2023-01-05T09:50:41;3.45;;;1.30;;
32250;SDS011;41295;48.518;9.206;2023-01-05T09:52:45;3.67;;;1.20;;
32250;SDS011;41295;48.518;9.206;2023-01-05T09:54:50;5.15;;;1.50;;
32250;SDS011;41295;48.518;9.206;2023-01-05T09:56:52;4.15;;;1.48;;
32250;SDS011;41295;48.518;9.206;2023-01-05T09:59:15;2.78;;;1.67;;
32250;SDS011;41295;48.518;9.206;2023-01-05T10:01:24;2.95;;;1.17;;
32250;SDS011;41295;48.518;9.206;2023-01-05T10:03:27;3.53;;;0.90;;
32250;SDS011;41295;48.518;9.206;2023-01-05T10:05:51;4.05;;;1.60;;
32250;SDS011;41295;48.518;9.206;2023-01-05T10:07:56;6.80;;;1.73;;
32250;SDS011;41295;48.518;9.206;2023-01-05T10:10:07;5.28;;;1.60;;
32250;SDS011;41295;48.518;9.206;2023-01-05T10:12:16;2.67;;;1.30;;
32250;SDS011;41295;48.518;9.206;2023-01-05T10:14:42;4.47;;;1.50;;
32250;SDS011;41295;48.518;9.206;2023-01-05T10:16:48;4.03;;;1.15;;
32250;SDS011;41295;48.518;9.206;2023-01-05T10:19:09;4.43;;;1.30;;
32250;SDS011;41295;48.518;9.206;2023-01-05T10:21:18;4.57;;;1.50;;
32250;SDS011;41295;48.518;9.206;2023-01-05T10:23:34;2.38;;;1.30;;
32250;SDS011;41295;48.518;9.206;2023-01-05T10:25:56;2.88;;;1.33;;
32250;SDS011;41295;48.518;9.206;2023-01-05T10:28:10;3.40;;;1.48;;
32250;SDS011;41295;48.518;9.206;2023-01-05T10:30:37;3.80;;;1.33;;
32250;SDS011;41295;48.518;9.206;2023-01-05T10:32:51;3.03;;;1.33;;
32250;SDS011;41295;48.518;9.206;2023-01-05T10:37:58;3.58;;;1.23;;
32250;SDS011;41295;48.518;9.206;2023-01-05T10:40:09;5.05;;;1.50;;
32250;SDS011;41295;48.518;9.206;2023-01-05T10:42:23;6.50;;;1.35;;
32250;SDS011;41295;48.518;9.206;2023-01-05T10:44:50;6.30;;;1.40;;
32250;SDS011;41295;48.518;9.206;2023-01-05T10:46:56;9.68;;;2.17;;
32250;SDS011;41295;48.518;9.206;2023-01-05T10:48:59;8.35;;;1.60;;
32250;SDS011;41295;48.518;9.206;2023-01-05T10:51:02;9.30;;;1.80;;
32250;SDS011;41295;48.518;9.206;2023-01-05T10:53:08;5.70;;;1.88;;
32250;SDS011;41295;48.518;9.206;2023-01-05T10:55:12;11.70;;;2.38;;
32250;SDS011;41295;48.518;9.206;2023-01-05T10:57:33;10.23;;;2.58;;
32250;SDS011;41295;48.518;9.206;2023-01-05T10:59:46;12.07;;;2.08;;
32250;SDS011;41295;48.518;9.206;2023-01-05T11:01:56;8.93;;;2.08;;
32250;SDS011;41295;48.518;9.206;2023-01-05T11:04:01;7.90;;;1.77;;
32250;SDS011;41295;48.518;9.206;2023-01-05T11:06:28;9.85;;;2.28;;
32250;SDS011;41295;48.518;9.206;2023-01-05T11:08:34;14.45;;;2.42;;
32250;SDS011;41295;48.518;9.206;2023-01-05T11:10:38;9.80;;;2.38;;
32250;SDS011;41295;48.518;9.206;2023-01-05T11:12:48;10.02;;;2.33;;
32250;SDS011;41295;48.518;9.206;2023-01-05T11:14:54;7.57;;;2.33;;
32250;SDS011;41295;48.518;9.206;2023-01-05T11:17:00;12.63;;;2.47;;
32250;SDS011;41295;48.518;9.206;2023-01-05T11:19:05;11.85;;;2.80;;
32250;SDS011;41295;48.518;9.206;2023-01-05T11:21:15;15.15;;;2.45;;
32250;SDS011;41295;48.518;9.206;2023-01-05T11:23:25;11.63;;;2.42;;
32250;SDS011;41295;48.518;9.206;2023-01-05T11:25:35;13.38;;;2.10;;
32250;SDS011;41295;48.518;9.206;2023-01-05T11:27:39;8.85;;;2.05;;
32250;SDS011;41295;48.518;9.206;2023-01-05T11:29:44;9.32;;;2.22;;
32250;SDS011;41295;48.518;9.206;2023-01-05T11:31:47;17.83;;;2.53;;
32250;SDS011;41295;48.518;9.206;2023-01-05T11:33:56;16.30;;;3.03;;
32250;SDS011;41295;48.518;9.206;2023-01-05T11:36:00;13.80;;;2.42;;
32250;SDS011;41295;48.518;9.206;2023-01-05T11:38:05;11.60;;;2.42;;
32250;SDS011;41295;48.518;9.206;2023-01-05T11:40:22;12.15;;;2.55;;
32250;SDS011;41295;48.518;9.206;2023-01-05T11:42:31;14.57;;;2.60;;
32250;SDS011;41295;48.518;9.206;2023-01-05T11:44:35;13.80;;;2.70;;
32250;SDS011;41295;48.518;9.206;2023-01-05T11:46:40;10.43;;;2.45;;
32250;SDS011;41295;48.518;9.206;2023-01-05T11:48:47;13.98;;;3.05;;
32250;SDS011;41295;48.518;9.206;2023-01-05T11:50:54;15.45;;;3.00;;
32250;SDS011;41295;48.518;9.206;2023-01-05T11:52:58;14.35;;;2.63;;
32250;SDS011;41295;48.518;9.206;2023-01-05T11:55:21;13.63;;;3.13;;
32250;SDS011;41295;48.518;9.206;2023-01-05T11:57:35;14.32;;;2.78;;
32250;SDS011;41295;48.518;9.206;2023-01-05T11:59:40;13.77;;;2.63;;
32250;SDS011;41295;48.518;9.206;2023-01-05T12:01:48;17.85;;;2.85;;
32250;SDS011;41295;48.518;9.206;2023-01-05T12:04:00;14.05;;;2.40;;
32250;SDS011;41295;48.518;9.206;2023-01-05T12:06:07;15.18;;;2.28;;
32250;SDS011;41295;48.518;9.206;2023-01-05T12:08:23;12.35;;;2.05;;
32250;SDS011;41295;48.518;9.206;2023-01-05T12:10:35;10.18;;;2.67;;
32250;SDS011;41295;48.518;9.206;2023-01-05T12:12:51;15.45;;;2.45;;
32250;SDS011;41295;48.518;9.206;2023-01-05T12:15:04;17.60;;;2.60;;
32250;SDS011;41295;48.518;9.206;2023-01-05T12:17:23;14.13;;;2.40;;
32250;SDS011;41295;48.518;9.206;2023-01-05T12:19:38;17.15;;;2.53;;
32250;SDS011;41295;48.518;9.206;2023-01-05T12:21:54;14.80;;;2.65;;
32250;SDS011;41295;48.518;9.206;2023-01-05T12:24:18;22.38;;;3.03;;
32250;SDS011;41295;48.518;9.206;2023-01-05T12:26:41;10.82;;;2.50;;
32250;SDS011;41295;48.518;9.206;2023-01-05T12:29:19;10.98;;;2.83;;
32250;SDS011;41295;48.518;9.206;2023-01-05T12:32:05;14.93;;;2.80;;
32250;SDS011;41295;48.518;9.206;2023-01-05T12:34:50;15.63;;;3.25;;
32250;SDS011;41295;48.518;9.206;2023-01-05T12:37:22;12.18;;;2.72;;
32250;SDS011;41295;48.518;9.206;2023-01-05T12:39:38;13.65;;;2.30;;
32250;SDS011;41295;48.518;9.206;2023-01-05T12:41:58;16.15;;;2.58;;
32250;SDS011;41295;48.518;9.206;2023-01-05T12:44:27;17.58;;;2.95;;
32250;SDS011;41295;48.518;9.206;2023-01-05T12:46:50;11.93;;;2.50;;
32250;SDS011;41295;48.518;9.206;2023-01-05T12:49:07;8.60;;;2.25;;